createdAt,value
2023-05-02T00:01:05.159Z,5.38
2023-05-02T00:04:08.318Z,5.55
2023-05-02T00:07:11.596Z,5.57
2023-05-02T00:10:14.364Z,6.27
2023-05-02T00:13:17.151Z,6.25
2023-05-02T00:16:19.821Z,6.10
2023-05-02T00:19:23.009Z,5.95
2023-05-02T00:22:25.681Z,5.47
2023-05-02T00:25:28.482Z,6.13
2023-05-02T00:28:32.107Z,5.63
2023-05-02T00:31:35.976Z,7.60
2023-05-02T00:34:38.756Z,5.75
2023-05-02T00:37:41.359Z,5.75
2023-05-02T00:40:49.088Z,5.07
2023-05-02T00:43:51.750Z,5.00
2023-05-02T00:46:55.753Z,5.57
2023-05-02T00:49:59.325Z,5.57
2023-05-02T00:53:03.879Z,6.22
2023-05-02T00:56:06.944Z,5.57
2023-05-02T00:59:11.450Z,5.82
2023-05-02T01:02:32.306Z,5.45
2023-05-02T01:05:52.354Z,5.85
2023-05-02T01:09:31.447Z,5.53
2023-05-02T01:12:55.016Z,5.73
2023-05-02T01:15:59.814Z,6.35
2023-05-02T01:19:07.041Z,4.60
2023-05-02T01:22:11.525Z,5.07
2023-05-02T01:25:17.029Z,6.40
2023-05-02T01:28:59.385Z,5.73
2023-05-02T01:32:03.287Z,5.25
2023-05-02T01:35:07.786Z,5.20
2023-05-02T01:38:15.380Z,6.45
2023-05-02T01:41:21.712Z,6.00
2023-05-02T01:44:25.567Z,5.53
2023-05-02T01:47:32.694Z,5.82
2023-05-02T01:50:37.706Z,5.28
2023-05-02T01:53:40.962Z,6.07
2023-05-02T01:56:44.593Z,6.28
2023-05-02T01:59:49.566Z,5.13
2023-05-02T02:02:54.008Z,6.22
2023-05-02T02:05:58.550Z,6.32
2023-05-02T02:09:01.837Z,5.88
2023-05-02T02:12:26.177Z,5.78
2023-05-02T02:15:34.659Z,5.63
2023-05-02T02:18:39.063Z,6.50
2023-05-02T02:21:48.236Z,5.97
2023-05-02T02:24:54.415Z,6.22
2023-05-02T02:27:58.250Z,7.00
2023-05-02T02:31:01.011Z,5.10
2023-05-02T02:34:03.945Z,5.88
2023-05-02T02:37:16.830Z,6.03
2023-05-02T02:40:47.964Z,5.40
2023-05-02T02:43:59.719Z,5.50
2023-05-02T02:47:26.481Z,5.40
2023-05-02T02:50:54.840Z,7.35
2023-05-02T02:54:26.396Z,5.95
2023-05-02T02:57:45.376Z,5.30
2023-05-02T03:00:49.881Z,6.70
2023-05-02T03:03:54.882Z,6.07
2023-05-02T03:06:57.657Z,5.45
2023-05-02T03:10:13.878Z,5.93
2023-05-02T03:13:16.833Z,5.40
2023-05-02T03:16:34.172Z,5.45
2023-05-02T03:19:37.693Z,5.77
2023-05-02T03:22:41.574Z,5.90
2023-05-02T03:25:44.294Z,5.40
2023-05-02T03:28:51.607Z,5.40
2023-05-02T03:32:00.300Z,6.82
2023-05-02T03:35:03.250Z,5.47
2023-05-02T03:38:12.840Z,6.78
2023-05-02T03:41:15.657Z,6.18
2023-05-02T03:44:19.350Z,5.45
2023-05-02T03:47:22.633Z,5.80
2023-05-02T03:50:25.275Z,5.83
2023-05-02T03:53:31.662Z,5.93
2023-05-02T03:56:34.908Z,5.55
2023-05-02T03:59:48.866Z,5.55
2023-05-02T04:03:03.945Z,5.65
2023-05-02T04:06:09.211Z,5.47
2023-05-02T04:09:12.587Z,5.18
2023-05-02T04:12:22.480Z,5.68
2023-05-02T04:15:27.864Z,5.78
2023-05-02T04:18:31.781Z,6.03
2023-05-02T04:21:37.513Z,5.30
2023-05-02T04:24:42.399Z,6.10
2023-05-02T04:27:45.188Z,5.50
2023-05-02T04:30:51.895Z,5.75
2023-05-02T04:33:57.460Z,5.68
2023-05-02T04:37:02.848Z,5.80
2023-05-02T04:40:08.358Z,5.68
2023-05-02T04:43:11.085Z,5.47
2023-05-02T04:46:25.197Z,5.10
2023-05-02T04:49:28.180Z,5.45
2023-05-02T04:52:31.483Z,8.60
2023-05-02T04:55:34.185Z,5.63
2023-05-02T04:58:37.102Z,5.47
2023-05-02T05:01:45.481Z,5.32
2023-05-02T05:04:48.378Z,6.47
2023-05-02T05:07:52.710Z,4.73
2023-05-02T05:10:57.982Z,5.40
2023-05-02T05:14:04.147Z,6.65
2023-05-02T05:17:09.102Z,4.93
2023-05-02T05:20:12.077Z,5.57
2023-05-02T05:23:16.135Z,5.87
2023-05-02T05:26:19.317Z,6.95
2023-05-02T05:29:24.200Z,8.60
2023-05-02T05:32:27.585Z,6.70
2023-05-02T05:35:34.270Z,5.80
2023-05-02T05:38:38.911Z,6.53
2023-05-02T05:41:43.304Z,5.25
2023-05-02T05:44:47.710Z,5.50
2023-05-02T05:47:55.304Z,5.18
2023-05-02T05:51:07.876Z,5.15
2023-05-02T05:54:11.869Z,5.57
2023-05-02T05:57:15.897Z,7.63
2023-05-02T06:00:34.380Z,5.93
2023-05-02T06:03:37.774Z,5.95
2023-05-02T06:06:43.110Z,5.15
2023-05-02T06:09:45.826Z,5.93
2023-05-02T06:12:49.802Z,6.07
2023-05-02T06:15:56.126Z,6.50
2023-05-02T06:19:01.061Z,5.93
2023-05-02T06:22:04.882Z,6.65
2023-05-02T06:25:10.011Z,7.37
2023-05-02T06:28:12.794Z,6.28
2023-05-02T06:31:16.526Z,5.53
2023-05-02T06:34:19.475Z,5.80
2023-05-02T06:37:21.998Z,4.75
2023-05-02T06:40:24.946Z,5.17
2023-05-02T06:43:28.410Z,5.95
2023-05-02T06:46:31.862Z,5.38
2023-05-02T06:49:35.956Z,5.55
2023-05-02T06:52:38.687Z,6.18
2023-05-02T06:55:41.497Z,7.17
2023-05-02T06:58:45.695Z,6.32
2023-05-02T07:01:49.715Z,6.28
2023-05-02T07:04:52.295Z,7.30
2023-05-02T07:07:56.107Z,6.15
2023-05-02T07:10:59.255Z,8.40
2023-05-02T07:14:01.979Z,6.05
2023-05-02T07:17:08.413Z,6.03
2023-05-02T07:20:12.206Z,8.70
2023-05-02T07:23:14.807Z,5.60
2023-05-02T07:26:19.053Z,5.77
2023-05-02T07:29:22.748Z,6.57
2023-05-02T07:32:26.770Z,6.03
2023-05-02T07:35:31.039Z,6.60
2023-05-02T07:38:34.073Z,8.00
2023-05-02T07:41:39.104Z,7.27
2023-05-02T07:44:45.574Z,4.80
2023-05-02T07:47:48.709Z,7.53
2023-05-02T07:50:51.465Z,9.68
2023-05-02T07:53:59.160Z,6.40
2023-05-02T07:57:03.737Z,7.93
2023-05-02T08:00:10.488Z,8.60
2023-05-02T08:03:16.394Z,7.28
2023-05-02T08:06:21.948Z,6.13
2023-05-02T08:09:25.387Z,6.22
2023-05-02T08:12:31.854Z,6.57
2023-05-02T08:15:35.222Z,8.00
2023-05-02T08:18:38.759Z,6.65
2023-05-02T08:21:43.476Z,7.43
2023-05-02T08:24:46.086Z,5.50
2023-05-02T08:27:49.991Z,5.60
2023-05-02T08:30:52.780Z,6.82
2023-05-02T08:33:56.470Z,5.40
2023-05-02T08:36:59.252Z,4.65
2023-05-02T08:40:02.545Z,5.28
2023-05-02T08:43:06.325Z,5.93
2023-05-02T08:46:11.228Z,5.65
2023-05-02T08:49:16.027Z,5.18
2023-05-02T08:52:20.339Z,4.80
2023-05-02T08:55:27.854Z,4.82
2023-05-02T08:58:33.797Z,7.80
2023-05-02T09:01:40.119Z,6.78
2023-05-02T09:04:46.446Z,5.18
2023-05-02T09:07:51.485Z,6.45
2023-05-02T09:10:54.343Z,6.55
2023-05-02T09:13:59.082Z,6.77
2023-05-02T09:17:02.682Z,6.80
2023-05-02T09:20:07.361Z,5.32
2023-05-02T09:23:10.862Z,6.95
2023-05-02T09:26:33.882Z,5.03
2023-05-02T09:29:38.037Z,6.53
2023-05-02T09:32:47.735Z,4.68
2023-05-02T09:35:56.724Z,5.25
2023-05-02T09:39:10.416Z,10.65
2023-05-02T09:42:13.030Z,5.72
2023-05-02T09:45:26.525Z,6.17
2023-05-02T09:48:31.382Z,4.50
2023-05-02T09:51:48.401Z,6.53
2023-05-02T09:54:56.476Z,5.50
2023-05-02T09:57:59.857Z,6.72
2023-05-02T10:01:02.796Z,8.37
2023-05-02T10:04:05.806Z,8.02
2023-05-02T10:07:10.810Z,6.35
2023-05-02T10:10:17.900Z,7.22
2023-05-02T10:13:22.751Z,5.97
2023-05-02T10:16:29.690Z,5.30
2023-05-02T10:20:00.277Z,6.68
2023-05-02T10:23:03.703Z,6.50
2023-05-02T10:26:07.135Z,5.13
2023-05-02T10:29:11.625Z,5.93
2023-05-02T10:32:17.451Z,5.50
2023-05-02T10:35:21.167Z,4.50
2023-05-02T10:38:24.929Z,6.57
2023-05-02T10:41:31.517Z,7.10
2023-05-02T10:44:41.021Z,6.15
2023-05-02T10:47:43.998Z,6.73
2023-05-02T10:50:48.152Z,4.72
2023-05-02T10:54:14.220Z,5.68
2023-05-02T10:57:16.777Z,5.32
2023-05-02T11:00:23.192Z,4.50
2023-05-02T11:04:00.958Z,6.30
2023-05-02T11:07:06.354Z,6.05
2023-05-02T11:10:18.635Z,4.65
2023-05-02T11:13:51.262Z,5.55
2023-05-02T11:17:05.558Z,6.93
2023-05-02T11:20:09.746Z,4.60
2023-05-02T11:23:15.527Z,4.78
2023-05-02T11:26:26.271Z,4.45
2023-05-02T11:30:01.829Z,6.05
2023-05-02T11:33:07.228Z,6.03
2023-05-02T11:36:11.598Z,5.07
2023-05-02T11:39:21.801Z,5.53
2023-05-02T11:42:32.436Z,5.72
2023-05-02T11:45:38.066Z,5.57
2023-05-02T11:48:41.908Z,6.35
2023-05-02T11:51:45.318Z,6.93
2023-05-02T11:54:56.350Z,6.53
2023-05-02T11:58:02.294Z,4.28
2023-05-02T12:01:16.186Z,4.45
2023-05-02T12:04:22.137Z,6.32
2023-05-02T12:07:36.549Z,3.70
2023-05-02T12:10:39.494Z,6.00
2023-05-02T12:13:47.923Z,5.00
2023-05-02T12:16:50.823Z,4.20
2023-05-02T12:19:53.872Z,4.95
2023-05-02T12:22:57.559Z,4.43
2023-05-02T12:26:00.600Z,4.85
2023-05-02T12:29:08.028Z,5.47
2023-05-02T12:32:11.803Z,5.78
2023-05-02T12:35:23.361Z,4.78
2023-05-02T12:38:26.331Z,6.20
2023-05-02T12:41:37.469Z,5.18
2023-05-02T12:44:42.128Z,8.02
2023-05-02T12:47:48.574Z,6.00
2023-05-02T12:50:51.922Z,4.25
2023-05-02T12:53:54.604Z,4.73
2023-05-02T12:56:57.843Z,4.93
2023-05-02T13:00:01.824Z,6.85
2023-05-02T13:03:05.465Z,5.05
2023-05-02T13:06:08.373Z,4.55
2023-05-02T13:09:11.197Z,3.83
2023-05-02T13:12:14.118Z,4.65
2023-05-02T13:15:16.807Z,3.35
2023-05-02T13:18:19.605Z,3.85
2023-05-02T13:21:22.890Z,4.72
2023-05-02T13:24:25.819Z,3.93
2023-05-02T13:27:28.755Z,4.50
2023-05-02T13:30:32.169Z,4.82
2023-05-02T13:33:34.829Z,4.97
2023-05-02T13:36:40.816Z,4.32
2023-05-02T13:39:43.377Z,4.40
2023-05-02T13:42:46.424Z,6.65
2023-05-02T13:45:49.212Z,13.07
2023-05-02T13:48:51.890Z,10.30
2023-05-02T13:51:55.144Z,12.93
2023-05-02T13:54:57.690Z,10.07
2023-05-02T13:58:00.257Z,15.15
2023-05-02T14:01:03.262Z,8.82
2023-05-02T14:04:09.106Z,9.80
2023-05-02T14:07:12.068Z,8.18
2023-05-02T14:10:14.776Z,8.33
2023-05-02T14:13:17.318Z,8.15
2023-05-02T14:16:19.980Z,8.88
2023-05-02T14:19:22.712Z,8.48
2023-05-02T14:22:25.525Z,8.27
2023-05-02T14:25:28.238Z,6.30
2023-05-02T14:28:31.436Z,6.60
2023-05-02T14:31:34.139Z,9.20
2023-05-02T14:34:36.898Z,6.55
2023-05-02T14:37:39.793Z,7.13
2023-05-02T14:40:42.537Z,7.13
2023-05-02T14:43:45.544Z,9.25
2023-05-02T14:46:48.254Z,10.23
2023-05-02T14:49:50.838Z,6.35
2023-05-02T14:52:53.688Z,5.82
2023-05-02T14:55:56.255Z,8.43
2023-05-02T14:58:59.356Z,5.63
2023-05-02T15:02:02.124Z,4.72
2023-05-02T15:05:12.330Z,5.25
2023-05-02T15:08:15.318Z,8.48
2023-05-02T15:11:18.431Z,5.23
2023-05-02T15:14:21.364Z,5.75
2023-05-02T15:17:24.176Z,43.50
2023-05-02T15:20:29.814Z,20.15
2023-05-02T15:23:32.600Z,23.55
2023-05-02T15:26:35.468Z,20.27
2023-05-02T15:29:38.778Z,20.90
2023-05-02T15:32:41.654Z,20.33
2023-05-02T15:35:53.955Z,21.25
2023-05-02T15:38:57.263Z,23.48
2023-05-02T15:42:04.843Z,26.40
2023-05-02T15:45:07.953Z,25.13
2023-05-02T15:48:10.609Z,22.80
2023-05-02T15:51:13.796Z,20.05
2023-05-02T15:54:16.931Z,16.92
2023-05-02T15:57:19.988Z,25.13
2023-05-02T16:00:22.624Z,24.48
2023-05-02T16:03:25.562Z,24.02
2023-05-02T16:06:28.316Z,29.85
2023-05-02T16:09:31.371Z,19.63
2023-05-02T16:12:33.997Z,23.93
2023-05-02T16:15:36.608Z,20.17
2023-05-02T16:18:39.321Z,21.83
2023-05-02T16:21:42.820Z,20.10
2023-05-02T16:24:46.026Z,20.17
2023-05-02T16:27:48.654Z,15.70
2023-05-02T16:30:51.469Z,14.52
2023-05-02T16:33:54.246Z,20.00
2023-05-02T16:36:57.234Z,23.35
2023-05-02T16:40:00.920Z,20.83
2023-05-02T16:43:04.227Z,15.13
2023-05-02T16:46:07.749Z,18.85
2023-05-02T16:49:10.626Z,17.63
2023-05-02T16:52:13.363Z,13.70
2023-05-02T16:55:16.709Z,20.25
2023-05-02T16:58:19.822Z,15.27
2023-05-02T17:01:25.594Z,19.70
2023-05-02T17:04:28.556Z,16.25
2023-05-02T17:07:31.237Z,18.00
2023-05-02T17:10:34.121Z,16.13
2023-05-02T17:13:37.052Z,19.47
2023-05-02T17:16:42.418Z,21.58
2023-05-02T17:19:45.745Z,19.50
2023-05-02T17:22:48.447Z,19.23
2023-05-02T17:25:51.715Z,21.25
2023-05-02T17:28:54.497Z,13.10
2023-05-02T17:32:00.155Z,13.55
2023-05-02T17:35:03.120Z,14.25
2023-05-02T17:38:05.919Z,15.40
2023-05-02T17:41:09.234Z,16.40
2023-05-02T17:44:11.851Z,16.40
2023-05-02T17:47:14.870Z,11.73
2023-05-02T17:50:18.357Z,18.88
2023-05-02T17:53:21.690Z,18.50
2023-05-02T17:56:24.954Z,13.85
2023-05-02T17:59:27.756Z,21.50
2023-05-02T18:02:31.233Z,13.05
2023-05-02T18:05:38.815Z,11.10
2023-05-02T18:08:41.472Z,13.45
2023-05-02T18:11:45.708Z,15.80
2023-05-02T18:14:49.292Z,12.80
2023-05-02T18:17:52.261Z,12.27
2023-05-02T18:20:56.286Z,12.43
2023-05-02T18:23:59.509Z,16.17
2023-05-02T18:27:03.679Z,17.20
2023-05-02T18:30:07.829Z,14.67
2023-05-02T18:33:11.168Z,9.70
2023-05-02T18:36:19.643Z,8.35
2023-05-02T18:39:22.890Z,12.90
2023-05-02T18:42:25.931Z,12.45
2023-05-02T18:45:30.294Z,10.73
2023-05-02T18:48:33.915Z,8.43
2023-05-02T18:51:37.221Z,15.70
2023-05-02T18:54:40.746Z,11.30
2023-05-02T18:57:44.918Z,10.68
2023-05-02T19:00:47.831Z,13.93
2023-05-02T19:03:53.231Z,11.85
2023-05-02T19:06:56.588Z,12.48
2023-05-02T19:09:59.669Z,11.98
2023-05-02T19:13:02.846Z,8.23
2023-05-02T19:16:10.198Z,15.23
2023-05-02T19:19:13.617Z,11.40
2023-05-02T19:22:16.719Z,9.57
2023-05-02T19:25:19.567Z,10.10
2023-05-02T19:28:23.316Z,12.02
2023-05-02T19:31:27.481Z,12.43
2023-05-02T19:34:31.459Z,12.43
2023-05-02T19:37:35.011Z,10.20
2023-05-02T19:40:38.649Z,10.10
2023-05-02T19:43:42.080Z,8.48
2023-05-02T19:46:45.844Z,9.67
2023-05-02T19:49:53.194Z,8.88
2023-05-02T19:52:56.867Z,10.30
2023-05-02T19:56:04.033Z,11.48
2023-05-02T19:59:08.122Z,7.10
2023-05-02T20:02:12.075Z,7.87
2023-05-02T20:05:15.553Z,9.75
2023-05-02T20:08:19.062Z,10.68
2023-05-02T20:11:22.350Z,7.55
2023-05-02T20:14:25.978Z,9.95
2023-05-02T20:17:29.488Z,11.30
2023-05-02T20:20:32.379Z,9.52
2023-05-02T20:23:35.443Z,6.93
2023-05-02T20:26:38.232Z,9.85
2023-05-02T20:29:40.977Z,8.50
2023-05-02T20:32:43.780Z,10.20
2023-05-02T20:35:54.459Z,13.32
2023-05-02T20:38:57.892Z,7.13
2023-05-02T20:42:00.631Z,8.77
2023-05-02T20:45:05.597Z,8.00
2023-05-02T20:48:08.284Z,7.67
2023-05-02T20:51:12.130Z,6.70
2023-05-02T20:54:14.784Z,8.98
2023-05-02T20:57:17.668Z,7.55
2023-05-02T21:00:22.531Z,9.88
2023-05-02T21:03:27.838Z,7.00
2023-05-02T21:06:31.575Z,10.20
2023-05-02T21:09:34.704Z,8.15
2023-05-02T21:12:37.347Z,7.18
2023-05-02T21:15:40.612Z,6.53
2023-05-02T21:18:43.547Z,7.93
2023-05-02T21:21:47.681Z,8.25
2023-05-02T21:24:51.169Z,9.07
2023-05-02T21:27:53.904Z,7.05
2023-05-02T21:30:56.605Z,8.70
2023-05-02T21:34:00.142Z,8.10
2023-05-02T21:37:02.839Z,8.65
2023-05-02T21:40:06.826Z,8.43
2023-05-02T21:43:09.668Z,9.00
2023-05-02T21:46:13.692Z,7.10
2023-05-02T21:49:16.278Z,7.93
2023-05-02T21:52:18.899Z,7.25
2023-05-02T21:55:21.430Z,9.27
2023-05-02T21:58:24.279Z,6.22
2023-05-02T22:01:27.102Z,10.32
2023-05-02T22:04:29.748Z,6.90
2023-05-02T22:07:32.540Z,5.60
2023-05-02T22:10:38.054Z,7.13
2023-05-02T22:13:40.743Z,8.65
2023-05-02T22:16:43.456Z,8.98
2023-05-02T22:19:50.294Z,9.87
2023-05-02T22:22:53.221Z,8.75
2023-05-02T22:25:57.295Z,7.55
2023-05-02T22:28:59.827Z,7.85
2023-05-02T22:32:03.055Z,7.75
2023-05-02T22:35:07.297Z,7.17
2023-05-02T22:38:16.619Z,5.68
2023-05-02T22:41:19.290Z,7.97
2023-05-02T22:44:21.929Z,7.63
2023-05-02T22:47:25.300Z,4.90
2023-05-02T22:50:27.873Z,7.73
2023-05-02T22:53:31.432Z,5.25
2023-05-02T22:56:34.594Z,6.30
2023-05-02T22:59:37.421Z,7.78
2023-05-02T23:02:40.312Z,7.85
2023-05-02T23:05:43.138Z,7.80
2023-05-02T23:08:45.884Z,8.27
2023-05-02T23:11:48.501Z,7.28
2023-05-02T23:14:51.211Z,5.00
2023-05-02T23:17:53.834Z,7.43
2023-05-02T23:20:56.534Z,4.90
2023-05-02T23:23:59.060Z,7.13
2023-05-02T23:27:01.648Z,6.25
2023-05-02T23:30:04.925Z,6.18
2023-05-02T23:33:07.990Z,6.72
2023-05-02T23:36:13.093Z,5.50
2023-05-02T23:39:15.763Z,6.85
2023-05-02T23:42:18.557Z,5.65
2023-05-02T23:45:21.322Z,6.00
2023-05-02T23:48:23.875Z,5.88
2023-05-02T23:51:27.809Z,8.70
2023-05-02T23:54:32.039Z,5.28
2023-05-02T23:57:37.371Z,6.20
